Details From KLKR - LANCASTER CO MC WHIRTER FLD
To KHLX - TWIN COUNTY
Flight Number -
Tags decoded
Created
Modified
Stats Distance 123 nm / 228 km
Max Altitude 0 ft / 0 m
Waypoints 6
Social Downloads 1
Likes 0
Share VATSIM

Download

Looking for another format? Having issues loading an existing format? Contact us
Advertisement - Login to hide

Notes

Requested: KLKR FML CLT KCLT 14A 78A KHLX Unmatched points: FML

Route

KLKR CLT KCLT 14A 78A KHLX

ID Type Via Altitude Latitude Longitude Leg Dist Tot Dist Heading (true) Name
O KLKR APT - 0 ft / 0 m 34.72290˚ -80.85459˚ - 0 nm - LANCASTER CO MC WHIRTER FLD
CLT VOR - 0 ft / 0 m 35.19028˚ -80.95175˚ 28 nm 28 nm 350° / 350° CHARLOTTE VOR-DME
KCLT APT - 0 ft / 0 m 35.21397˚ -80.94859˚ 1 nm 29 nm 6° / 6° Charlotte Douglas Intl
14A APT - 0 ft / 0 m 35.61387˚ -80.89966˚ 24 nm 54 nm 6° / 6° Lake Norman Airpark
78A APT - 0 ft / 0 m 36.20236˚ -80.86813˚ 35 nm 89 nm 2° / 2° Swan Creek
O KHLX APT - 0 ft / 0 m 36.76611˚ -80.82357˚ 33 nm 123 nm 4° / 4° TWIN COUNTY

Altitude Profile

Advertisement - Login to hide

KLKR

Details ICAO KLKR
Name LANCASTER CO MC WHIRTER FLD
Region United States
Timezone America/New_York (UTC-5.0)
Stats Elevation 486 ft / 148 m (AMSL)
Location 34.722904° -80.854590°
Runways 1
Magnetic Variation 7.666° W

METAR

KLKR 141935Z AUTO 20005KT 10SM CLR 14/M03 A2985 RMK AO2

Decode

TAF

Not found

Departure Runways

ID Width Length Bearing (true) Bearing (mag) Surface Threshold Offset Overrun Length
06 100 ft / 30 m 5,999 ft / 1,829 m 58.40° 66.07° Asphalt 0 ft / 0 m 0 ft / 0 m
24 100 ft / 30 m 5,999 ft / 1,829 m 238.41° 246.08° Asphalt 660 ft / 201 m 0 ft / 0 m

KHLX

Details ICAO KHLX
Name TWIN COUNTY
Region United States
Timezone America/New_York (UTC-5.0)
Stats Elevation 2,693 ft / 821 m (AMSL)
Location 36.766114° -80.823567°
Runways 1
Magnetic Variation 8.034° W

METAR

KHLX 141935Z AUTO 31012KT 10SM CLR 04/M05 A2982 RMK AO2 T00351047

Decode

TAF

Not found

Destination Runways

ID Width Length Bearing (true) Bearing (mag) Surface Threshold Offset Overrun Length
01 75 ft / 23 m 4,213 ft / 1,284 m 9.96° 17.99° Asphalt 0 ft / 0 m 0 ft / 0 m
19 75 ft / 23 m 4,213 ft / 1,284 m 189.96° 197.99° Asphalt 0 ft / 0 m 0 ft / 0 m